createdAt,value
2019-05-13T00:01:50.189Z,1.40
2019-05-13T00:04:25.368Z,1.93
2019-05-13T00:07:00.458Z,1.83
2019-05-13T00:09:34.532Z,1.93
2019-05-13T00:12:08.440Z,2.50
2019-05-13T00:14:43.411Z,1.87
2019-05-13T00:17:18.848Z,1.80
2019-05-13T00:19:53.236Z,2.53
2019-05-13T00:22:27.283Z,1.87
2019-05-13T00:25:00.987Z,2.20
2019-05-13T00:27:36.021Z,2.53
2019-05-13T00:30:10.347Z,1.87
2019-05-13T00:32:45.079Z,1.70
2019-05-13T00:35:20.032Z,1.33
2019-05-13T00:37:54.337Z,2.13
2019-05-13T00:40:28.804Z,2.67
2019-05-13T00:43:03.907Z,2.60
2019-05-13T00:45:38.186Z,1.80
2019-05-13T00:48:14.386Z,2.13
2019-05-13T00:50:48.551Z,2.40
2019-05-13T00:53:23.740Z,2.43
2019-05-13T00:55:57.914Z,1.80
2019-05-13T00:58:33.509Z,1.90
2019-05-13T01:01:07.552Z,2.47
2019-05-13T01:03:41.328Z,2.23
2019-05-13T01:06:15.517Z,3.50
2019-05-13T01:08:49.224Z,2.20
2019-05-13T01:11:23.657Z,2.80
2019-05-13T01:13:57.696Z,2.37
2019-05-13T01:16:33.935Z,2.40
2019-05-13T01:19:06.712Z,2.33
2019-05-13T01:21:43.492Z,2.73
2019-05-13T01:24:18.534Z,2.93
2019-05-13T01:26:54.109Z,3.00
2019-05-13T01:29:29.384Z,2.47
2019-05-13T01:32:04.650Z,2.40
2019-05-13T01:34:39.037Z,3.33
2019-05-13T01:37:13.368Z,2.50
2019-05-13T01:39:47.286Z,2.97
2019-05-13T01:42:21.196Z,2.63
2019-05-13T01:44:56.682Z,2.40
2019-05-13T01:47:30.480Z,2.33
2019-05-13T01:50:05.874Z,2.47
2019-05-13T01:52:39.938Z,2.40
2019-05-13T01:55:14.709Z,2.70
2019-05-13T01:57:48.579Z,3.70
2019-05-13T02:00:24.166Z,3.10
2019-05-13T02:02:57.966Z,2.40
2019-05-13T02:05:34.036Z,2.37
2019-05-13T02:08:09.482Z,2.43
2019-05-13T02:10:56.854Z,2.47
2019-05-13T02:13:30.506Z,2.30
2019-05-13T02:16:04.518Z,2.70
2019-05-13T02:18:38.236Z,2.50
2019-05-13T02:21:13.900Z,2.63
2019-05-13T02:23:47.837Z,2.90
2019-05-13T02:26:23.884Z,2.83
2019-05-13T02:28:56.964Z,3.00
2019-05-13T02:31:41.506Z,3.00
2019-05-13T02:34:06.666Z,2.77
2019-05-13T02:36:43.606Z,2.60
2019-05-13T02:39:17.027Z,2.77
2019-05-13T02:41:52.784Z,2.70
2019-05-13T02:44:26.724Z,3.30
2019-05-13T02:47:03.365Z,2.47
2019-05-13T02:49:36.077Z,2.90
2019-05-13T02:52:12.995Z,2.63
2019-05-13T02:54:46.939Z,2.80
2019-05-13T02:57:23.363Z,2.70
2019-05-13T02:59:58.957Z,4.03
2019-05-13T03:02:32.930Z,2.30
2019-05-13T03:05:07.929Z,3.13
2019-05-13T03:07:42.737Z,3.20
2019-05-13T03:10:18.803Z,2.77
2019-05-13T03:12:53.404Z,2.83
2019-05-13T03:15:32.662Z,3.00
2019-05-13T03:18:06.770Z,2.20
2019-05-13T03:20:43.078Z,2.53
2019-05-13T03:23:16.485Z,2.60
2019-05-13T03:25:53.777Z,2.77
2019-05-13T03:28:25.962Z,3.40
2019-05-13T03:31:05.443Z,2.83
2019-05-13T03:33:37.579Z,3.30
2019-05-13T03:36:16.446Z,2.97
2019-05-13T03:39:05.632Z,2.97
2019-05-13T03:41:32.829Z,3.60
2019-05-13T03:44:13.636Z,2.70
2019-05-13T03:46:54.235Z,2.70
2019-05-13T03:49:32.867Z,3.30
2019-05-13T03:52:06.813Z,1.83
2019-05-13T03:54:43.620Z,4.13
2019-05-13T03:57:17.902Z,4.00
2019-05-13T03:59:52.702Z,3.13
2019-05-13T04:02:26.581Z,3.20
2019-05-13T04:05:03.791Z,2.77
2019-05-13T04:07:36.118Z,3.50
2019-05-13T04:10:13.209Z,2.73
2019-05-13T04:12:47.114Z,3.00
2019-05-13T04:15:23.553Z,3.40
2019-05-13T04:17:57.312Z,3.50
2019-05-13T04:20:33.299Z,2.80
2019-05-13T04:23:07.646Z,2.70
2019-05-13T04:25:44.743Z,2.50
2019-05-13T04:28:21.970Z,3.20
2019-05-13T04:30:55.319Z,2.73
2019-05-13T04:33:29.282Z,3.80
2019-05-13T04:36:03.401Z,2.53
2019-05-13T04:38:37.314Z,2.83
2019-05-13T04:41:11.954Z,2.90
2019-05-13T04:43:47.209Z,3.30
2019-05-13T04:46:22.822Z,2.43
2019-05-13T04:48:56.610Z,2.40
2019-05-13T04:51:32.877Z,2.90
2019-05-13T04:54:07.028Z,3.33
2019-05-13T04:56:42.412Z,3.07
2019-05-13T04:59:16.720Z,2.77
2019-05-13T05:02:40.082Z,3.20
2019-05-13T05:05:44.337Z,2.53
2019-05-13T05:09:08.494Z,2.50
2019-05-13T05:12:42.338Z,3.10
2019-05-13T05:15:57.944Z,2.47
2019-05-13T05:20:23.402Z,2.70
2019-05-13T05:23:51.985Z,2.73
2019-05-13T05:27:18.206Z,2.60
2019-05-13T05:30:21.804Z,2.47
2019-05-13T05:33:51.673Z,2.40
2019-05-13T05:37:06.186Z,2.60
2019-05-13T05:39:42.196Z,2.10
2019-05-13T05:42:17.945Z,3.10
2019-05-13T05:44:55.209Z,2.70
2019-05-13T05:47:33.781Z,2.40
2019-05-13T05:50:12.139Z,2.77
2019-05-13T05:52:51.241Z,2.50
2019-05-13T05:55:27.899Z,2.67
2019-05-13T05:58:05.927Z,2.10
2019-05-13T06:00:42.599Z,2.40
2019-05-13T06:03:18.524Z,2.37
2019-05-13T06:05:52.625Z,2.50
2019-05-13T06:08:27.886Z,2.47
2019-05-13T06:11:03.647Z,2.20
2019-05-13T06:13:42.032Z,2.20
2019-05-13T06:16:16.372Z,3.03
2019-05-13T06:18:52.248Z,1.97
2019-05-13T06:21:28.080Z,2.53
2019-05-13T06:24:02.893Z,2.13
2019-05-13T06:26:36.602Z,2.47
2019-05-13T06:29:12.576Z,3.07
2019-05-13T06:31:46.373Z,1.93
2019-05-13T06:34:21.865Z,2.40
2019-05-13T06:36:55.637Z,2.47
2019-05-13T06:39:31.743Z,2.13
2019-05-13T06:42:05.784Z,2.43
2019-05-13T06:44:41.474Z,2.47
2019-05-13T06:47:15.074Z,2.07
2019-05-13T06:49:51.640Z,2.80
2019-05-13T06:52:25.791Z,2.47
2019-05-13T06:55:02.529Z,2.47
2019-05-13T06:57:35.772Z,2.20
2019-05-13T07:00:12.225Z,2.13
2019-05-13T07:02:46.086Z,2.80
2019-05-13T07:05:22.466Z,2.27
2019-05-13T07:07:55.356Z,2.57
2019-05-13T07:10:32.119Z,2.67
2019-05-13T07:13:07.366Z,2.10
2019-05-13T07:15:43.850Z,2.57
2019-05-13T07:18:17.529Z,2.77
2019-05-13T07:20:52.985Z,2.20
2019-05-13T07:23:31.868Z,2.23
2019-05-13T07:26:06.138Z,2.90
2019-05-13T07:28:42.884Z,2.17
2019-05-13T07:31:17.392Z,2.10
2019-05-13T07:33:51.683Z,2.37
2019-05-13T07:36:26.990Z,2.23
2019-05-13T07:39:01.542Z,1.93
2019-05-13T07:41:39.446Z,2.00
2019-05-13T07:44:11.865Z,1.90
2019-05-13T07:46:46.830Z,2.73
2019-05-13T07:49:22.536Z,1.67
2019-05-13T07:51:55.962Z,1.97
2019-05-13T07:54:33.005Z,1.53
2019-05-13T07:57:07.578Z,1.80
2019-05-13T07:59:43.341Z,1.47
2019-05-13T08:02:17.144Z,1.63
2019-05-13T08:04:52.933Z,1.93
2019-05-13T08:07:28.053Z,1.97
2019-05-13T08:10:03.634Z,2.67
2019-05-13T08:12:37.158Z,2.00
2019-05-13T08:15:17.734Z,2.00
2019-05-13T08:17:52.634Z,1.70
2019-05-13T08:20:28.207Z,1.93
2019-05-13T08:23:02.678Z,1.93
2019-05-13T08:25:42.109Z,1.70
2019-05-13T08:28:15.255Z,1.30
2019-05-13T08:30:51.643Z,1.43
2019-05-13T08:33:25.143Z,1.90
2019-05-13T08:35:59.429Z,2.00
2019-05-13T08:38:36.060Z,1.73
2019-05-13T08:41:18.718Z,1.70
2019-05-13T08:43:45.813Z,1.30
2019-05-13T08:46:21.815Z,1.90
2019-05-13T08:48:56.174Z,1.37
2019-05-13T08:51:34.669Z,1.80
2019-05-13T08:54:11.500Z,1.63
2019-05-13T08:56:45.207Z,1.63
2019-05-13T08:59:22.180Z,1.33
2019-05-13T09:01:57.514Z,2.00
2019-05-13T09:04:31.728Z,1.60
2019-05-13T09:07:06.217Z,1.57
2019-05-13T09:09:41.936Z,1.00
2019-05-13T09:12:28.433Z,1.20
2019-05-13T09:14:52.380Z,1.40
2019-05-13T09:17:27.229Z,1.20
2019-05-13T09:20:02.811Z,1.70
2019-05-13T09:22:36.698Z,1.43
2019-05-13T09:25:12.647Z,1.37
2019-05-13T09:27:51.360Z,1.20
2019-05-13T09:30:27.389Z,1.70
2019-05-13T09:33:02.748Z,1.30
2019-05-13T09:35:36.680Z,1.30
2019-05-13T09:38:12.788Z,1.20
2019-05-13T09:40:46.966Z,1.60
2019-05-13T09:43:22.208Z,1.30
2019-05-13T09:45:57.175Z,2.53
2019-05-13T09:48:35.454Z,1.50
2019-05-13T09:51:12.396Z,1.37
2019-05-13T09:53:46.321Z,1.30
2019-05-13T09:56:22.312Z,1.40
2019-05-13T09:58:55.895Z,1.90
2019-05-13T10:01:32.238Z,1.10
2019-05-13T10:04:06.405Z,1.00
2019-05-13T10:06:42.145Z,2.33
2019-05-13T10:09:22.414Z,1.10
2019-05-13T10:11:55.859Z,1.60
2019-05-13T10:14:32.653Z,0.93
2019-05-13T10:17:06.754Z,1.10
2019-05-13T10:19:42.189Z,1.47
2019-05-13T10:22:16.092Z,1.30
2019-05-13T10:24:52.762Z,1.50
2019-05-13T10:27:27.511Z,1.37
2019-05-13T10:30:02.090Z,1.63
2019-05-13T10:32:35.873Z,0.90
2019-05-13T10:35:11.696Z,1.00
2019-05-13T10:37:47.200Z,1.13
2019-05-13T10:40:22.936Z,1.80
2019-05-13T10:42:58.664Z,1.20
2019-05-13T10:45:33.216Z,1.00
2019-05-13T10:48:10.475Z,1.00
2019-05-13T10:50:44.680Z,0.77
2019-05-13T10:53:22.175Z,0.80
2019-05-13T10:55:55.780Z,0.73
2019-05-13T10:58:29.530Z,0.90
2019-05-13T11:01:06.049Z,1.10
2019-05-13T11:03:42.686Z,0.80
2019-05-13T11:06:17.176Z,0.90
2019-05-13T11:08:53.748Z,1.10
2019-05-13T11:11:32.049Z,1.20
2019-05-13T11:14:11.019Z,0.90
2019-05-13T11:16:42.651Z,1.20
2019-05-13T11:19:17.032Z,1.00
2019-05-13T11:21:53.031Z,0.93
2019-05-13T11:24:26.793Z,0.87
2019-05-13T11:27:02.965Z,0.80
2019-05-13T11:29:37.996Z,0.93
2019-05-13T11:32:13.847Z,0.90
2019-05-13T11:34:48.785Z,0.97
2019-05-13T11:37:24.270Z,0.77
2019-05-13T11:39:59.132Z,0.80
2019-05-13T11:42:33.209Z,1.00
2019-05-13T11:45:08.360Z,0.90
2019-05-13T11:47:41.961Z,0.80
2019-05-13T11:50:18.652Z,0.80
2019-05-13T11:52:52.708Z,0.80
2019-05-13T11:55:26.409Z,0.77
2019-05-13T11:58:02.987Z,0.80
2019-05-13T12:01:03.113Z,0.80
2019-05-13T12:03:36.889Z,0.90
2019-05-13T12:06:10.711Z,1.00
2019-05-13T12:08:50.795Z,0.77
2019-05-13T12:11:22.536Z,0.83
2019-05-13T12:13:56.421Z,0.90
2019-05-13T12:16:30.370Z,0.63
2019-05-13T12:19:04.278Z,0.93
2019-05-13T12:21:43.306Z,0.83
2019-05-13T12:24:17.698Z,0.70
2019-05-13T12:26:53.146Z,1.30
2019-05-13T12:29:26.918Z,0.67
2019-05-13T12:32:03.316Z,0.83
2019-05-13T12:34:41.806Z,0.90
2019-05-13T12:37:14.264Z,0.80
2019-05-13T12:39:48.016Z,1.07
2019-05-13T12:42:22.823Z,0.63
2019-05-13T12:45:05.397Z,0.60
2019-05-13T12:47:34.463Z,0.70
2019-05-13T12:50:09.529Z,0.87
2019-05-13T12:52:44.924Z,0.67
2019-05-13T12:55:18.850Z,1.10
2019-05-13T12:57:53.623Z,1.30
2019-05-13T13:00:27.604Z,0.87
2019-05-13T13:03:02.965Z,0.63
2019-05-13T13:05:38.275Z,0.70
2019-05-13T13:08:24.368Z,0.67
2019-05-13T13:10:47.830Z,0.87
2019-05-13T13:13:51.666Z,0.90
2019-05-13T13:15:58.577Z,0.97
2019-05-13T13:18:32.747Z,0.87
2019-05-13T13:21:08.332Z,0.70
2019-05-13T13:23:42.933Z,1.30
2019-05-13T13:26:16.801Z,1.00
2019-05-13T13:28:55.921Z,0.80
2019-05-13T13:31:26.793Z,0.80
2019-05-13T13:34:11.262Z,0.70
2019-05-13T13:36:39.324Z,0.77
2019-05-13T13:39:15.737Z,0.70
2019-05-13T13:41:49.740Z,0.57
2019-05-13T13:44:25.242Z,0.87
2019-05-13T13:46:59.130Z,0.77
2019-05-13T13:49:35.327Z,0.87
2019-05-13T13:52:16.002Z,0.80
2019-05-13T13:54:46.152Z,0.80
2019-05-13T13:57:25.638Z,0.80
2019-05-13T14:00:19.722Z,0.63
2019-05-13T14:02:37.009Z,0.70
2019-05-13T14:05:08.312Z,0.97
2019-05-13T14:07:42.541Z,0.90
2019-05-13T14:10:17.457Z,1.00
2019-05-13T14:12:52.563Z,0.80
2019-05-13T14:15:26.584Z,1.07
2019-05-13T14:18:00.649Z,0.97
2019-05-13T14:20:38.926Z,0.80
2019-05-13T14:23:12.805Z,0.60
2019-05-13T14:25:47.917Z,0.93
2019-05-13T14:28:23.133Z,1.00
2019-05-13T14:30:56.967Z,0.70
2019-05-13T14:33:35.255Z,1.10
2019-05-13T14:36:07.322Z,1.03
2019-05-13T14:38:41.245Z,1.07
2019-05-13T14:41:15.041Z,0.83
2019-05-13T14:43:48.883Z,0.67
2019-05-13T14:46:35.405Z,1.00
2019-05-13T14:49:01.641Z,0.90
2019-05-13T14:51:35.166Z,1.00
2019-05-13T14:54:08.864Z,1.00
2019-05-13T14:56:42.684Z,1.07
2019-05-13T14:59:16.769Z,1.07
2019-05-13T15:01:51.845Z,0.83
2019-05-13T15:04:25.768Z,0.90
2019-05-13T15:06:59.806Z,0.90
2019-05-13T15:09:33.868Z,1.07
2019-05-13T15:12:08.170Z,1.00
2019-05-13T15:14:43.042Z,1.00
2019-05-13T15:17:21.468Z,0.90
2019-05-13T15:19:55.826Z,1.40
2019-05-13T15:22:31.901Z,0.97
2019-05-13T15:25:06.386Z,1.00
2019-05-13T15:27:42.219Z,1.00
2019-05-13T15:30:18.061Z,1.27
2019-05-13T15:32:52.554Z,1.40
2019-05-13T15:35:26.920Z,1.50
2019-05-13T15:38:01.313Z,1.63
2019-05-13T15:40:36.661Z,1.60
2019-05-13T15:43:11.651Z,1.10
2019-05-13T15:45:45.665Z,1.20
2019-05-13T15:48:22.267Z,1.20
2019-05-13T15:50:56.387Z,1.07
2019-05-13T15:53:32.123Z,1.30
2019-05-13T15:56:07.602Z,1.37
2019-05-13T15:58:44.526Z,1.17
2019-05-13T16:01:22.676Z,1.37
2019-05-13T16:03:55.360Z,1.00
2019-05-13T16:06:29.096Z,0.87
2019-05-13T16:09:03.146Z,2.17
2019-05-13T16:11:37.178Z,1.23
2019-05-13T16:14:11.818Z,1.27
2019-05-13T16:16:47.768Z,1.00
2019-05-13T16:19:22.128Z,0.97
2019-05-13T16:21:55.864Z,1.23
2019-05-13T16:24:31.935Z,1.10
2019-05-13T16:27:06.684Z,1.03
2019-05-13T16:29:42.204Z,1.10
2019-05-13T16:32:15.969Z,0.73
2019-05-13T16:34:51.888Z,0.60
2019-05-13T16:37:25.249Z,1.00
2019-05-13T16:40:00.736Z,0.93
2019-05-13T16:42:34.928Z,1.00
2019-05-13T16:45:12.608Z,0.90
2019-05-13T16:47:56.612Z,0.80
2019-05-13T16:50:23.049Z,1.00
2019-05-13T16:52:57.969Z,1.17
2019-05-13T16:55:32.835Z,0.90
2019-05-13T16:58:06.708Z,0.97
2019-05-13T17:00:43.052Z,1.40
2019-05-13T17:03:18.407Z,0.80
2019-05-13T17:05:53.411Z,0.63
2019-05-13T17:08:27.796Z,0.90
2019-05-13T17:11:02.169Z,1.10
2019-05-13T17:13:36.053Z,0.87
2019-05-13T17:16:09.910Z,1.00
2019-05-13T17:18:45.773Z,0.90
2019-05-13T17:21:21.226Z,0.70
2019-05-13T17:23:57.627Z,0.67
2019-05-13T17:26:32.798Z,1.20
2019-05-13T17:29:08.827Z,1.10
2019-05-13T17:31:44.533Z,0.90
2019-05-13T17:34:21.153Z,0.77
2019-05-13T17:36:55.802Z,1.00
2019-05-13T17:39:32.043Z,1.00
2019-05-13T17:42:05.728Z,1.53
2019-05-13T17:44:45.955Z,1.07
2019-05-13T17:47:16.167Z,1.07
2019-05-13T17:49:52.087Z,1.20
2019-05-13T17:52:26.586Z,1.30
2019-05-13T17:55:01.116Z,0.80
2019-05-13T17:57:36.371Z,0.90
2019-05-13T18:00:12.508Z,0.73
2019-05-13T18:02:47.213Z,1.13
2019-05-13T18:05:22.589Z,1.07
2019-05-13T18:08:01.675Z,0.80
2019-05-13T18:10:35.352Z,1.00
2019-05-13T18:13:12.452Z,1.07
2019-05-13T18:15:45.253Z,1.00
2019-05-13T18:18:21.420Z,1.23
2019-05-13T18:20:55.079Z,1.20
2019-05-13T18:23:28.837Z,0.90
2019-05-13T18:26:04.512Z,1.20
2019-05-13T18:28:38.882Z,0.90
2019-05-13T18:31:13.125Z,0.83
2019-05-13T18:33:47.544Z,0.90
2019-05-13T18:36:22.413Z,0.80
2019-05-13T18:38:58.126Z,0.90
2019-05-13T18:41:33.686Z,1.20
2019-05-13T18:44:12.304Z,1.33
2019-05-13T18:46:52.309Z,1.03
2019-05-13T18:49:26.941Z,1.20
2019-05-13T18:52:02.321Z,0.77
2019-05-13T18:54:36.242Z,0.90
2019-05-13T18:57:12.464Z,1.20
2019-05-13T18:59:46.996Z,1.20
2019-05-13T19:02:25.366Z,0.90
2019-05-13T19:05:01.425Z,1.03
2019-05-13T19:07:41.833Z,1.00
2019-05-13T19:10:22.015Z,0.87
2019-05-13T19:12:58.101Z,1.00
2019-05-13T19:15:36.128Z,2.07
2019-05-13T19:18:12.252Z,5.00
2019-05-13T19:20:51.324Z,2.27
2019-05-13T19:23:28.207Z,1.33
2019-05-13T19:26:03.048Z,1.57
2019-05-13T19:28:43.206Z,1.27
2019-05-13T19:31:18.148Z,1.30
2019-05-13T19:33:53.608Z,1.03
2019-05-13T19:36:28.079Z,1.00
2019-05-13T19:39:11.224Z,1.50
2019-05-13T19:41:44.834Z,1.20
2019-05-13T19:44:19.059Z,1.13
2019-05-13T19:46:52.894Z,1.23
2019-05-13T19:49:33.774Z,1.40
2019-05-13T19:52:06.087Z,1.43
2019-05-13T19:54:42.014Z,0.90
2019-05-13T19:57:16.173Z,1.37
2019-05-13T19:59:50.951Z,1.60
2019-05-13T20:02:25.393Z,1.30
2019-05-13T20:05:01.230Z,1.23
2019-05-13T20:07:34.639Z,2.37
2019-05-13T20:10:12.630Z,1.57
2019-05-13T20:12:48.137Z,1.50
2019-05-13T20:15:25.083Z,1.53
2019-05-13T20:18:01.421Z,1.30
2019-05-13T20:20:38.300Z,1.20
2019-05-13T20:23:12.203Z,1.10
2019-05-13T20:25:47.717Z,1.57
2019-05-13T20:28:21.553Z,1.30
2019-05-13T20:30:55.281Z,1.43
2019-05-13T20:33:31.633Z,1.10
2019-05-13T20:36:05.196Z,1.73
2019-05-13T20:38:39.077Z,1.50
2019-05-13T20:41:13.296Z,1.03
2019-05-13T20:43:47.485Z,1.10
2019-05-13T20:46:23.908Z,1.73
2019-05-13T20:48:58.083Z,1.50
2019-05-13T20:51:33.403Z,1.73
2019-05-13T20:54:07.418Z,1.33
2019-05-13T20:56:42.241Z,1.60
2019-05-13T20:59:21.576Z,1.63
2019-05-13T21:03:02.601Z,1.27
2019-05-13T21:05:37.535Z,1.60
2019-05-13T21:08:13.083Z,1.37
2019-05-13T21:10:48.504Z,1.40
2019-05-13T21:13:25.045Z,1.67
2019-05-13T21:16:02.327Z,1.67
2019-05-13T21:18:37.809Z,1.47
2019-05-13T21:21:13.407Z,1.37
2019-05-13T21:23:48.518Z,1.80
2019-05-13T21:26:23.156Z,1.83
2019-05-13T21:28:57.255Z,1.80
2019-05-13T21:31:30.960Z,1.37
2019-05-13T21:34:07.945Z,1.80
2019-05-13T21:36:41.542Z,1.50
2019-05-13T21:39:16.474Z,1.73
2019-05-13T21:41:51.900Z,1.90
2019-05-13T21:44:27.292Z,1.77
2019-05-13T21:47:02.167Z,2.00
2019-05-13T21:49:35.799Z,2.43
2019-05-13T21:52:09.696Z,1.43
2019-05-13T21:54:43.305Z,2.10
2019-05-13T21:57:16.919Z,1.70
2019-05-13T21:59:51.584Z,1.70
2019-05-13T22:02:25.251Z,2.10
2019-05-13T22:05:00.956Z,1.57
2019-05-13T22:07:33.887Z,1.70
2019-05-13T22:10:09.668Z,2.00
2019-05-13T22:12:43.257Z,1.63
2019-05-13T22:15:16.974Z,1.63
2019-05-13T22:17:51.315Z,2.30
2019-05-13T22:20:25.382Z,1.70
2019-05-13T22:23:01.484Z,1.60
2019-05-13T22:25:35.699Z,2.10
2019-05-13T22:28:09.160Z,1.80
2019-05-13T22:30:42.663Z,1.40
2019-05-13T22:33:16.164Z,1.80
2019-05-13T22:35:52.126Z,2.30
2019-05-13T22:38:24.801Z,1.57
2019-05-13T22:41:01.066Z,2.23
2019-05-13T22:43:35.286Z,1.90
2019-05-13T22:46:08.789Z,1.60
2019-05-13T22:48:42.695Z,1.90
2019-05-13T22:51:16.302Z,2.00
2019-05-13T22:53:49.805Z,2.00
2019-05-13T22:56:23.301Z,2.10
2019-05-13T22:58:58.356Z,1.90
2019-05-13T23:01:32.373Z,1.73
2019-05-13T23:04:07.384Z,2.33
2019-05-13T23:06:41.398Z,2.10
2019-05-13T23:09:14.817Z,1.90
2019-05-13T23:11:50.982Z,2.30
2019-05-13T23:14:24.257Z,1.63
2019-05-13T23:16:57.856Z,2.33
2019-05-13T23:19:32.457Z,1.97
2019-05-13T23:22:06.544Z,1.90
2019-05-13T23:24:41.740Z,2.03
2019-05-13T23:27:15.852Z,1.90
2019-05-13T23:29:51.718Z,2.40
2019-05-13T23:32:25.354Z,2.70
2019-05-13T23:35:02.052Z,2.43
2019-05-13T23:37:35.690Z,2.30
2019-05-13T23:40:11.862Z,3.10
2019-05-13T23:42:48.346Z,2.27
2019-05-13T23:45:22.261Z,2.33
2019-05-13T23:47:56.140Z,2.40
2019-05-13T23:50:31.947Z,2.30
2019-05-13T23:53:05.398Z,2.53
2019-05-13T23:55:41.243Z,2.30
2019-05-13T23:58:14.549Z,2.83
